createdAt,value
2022-12-04T00:01:36.115Z,73.59
2022-12-04T00:04:03.725Z,71.48
2022-12-04T00:06:31.078Z,71.94
2022-12-04T00:08:58.438Z,74.25
2022-12-04T00:11:28.237Z,72.85
2022-12-04T00:13:57.346Z,71.50
2022-12-04T00:16:27.532Z,72.93
2022-12-04T00:18:55.061Z,74.81
2022-12-04T00:21:23.013Z,76.59
2022-12-04T00:23:50.687Z,73.01
2022-12-04T00:26:19.795Z,73.08
2022-12-04T00:28:47.187Z,71.15
2022-12-04T00:31:19.678Z,71.05
2022-12-04T00:33:47.105Z,71.18
2022-12-04T00:36:18.041Z,71.16
2022-12-04T00:38:45.807Z,72.54
2022-12-04T00:41:14.754Z,71.11
2022-12-04T00:43:42.397Z,70.78
2022-12-04T00:46:10.120Z,69.83
2022-12-04T00:48:37.606Z,69.32
2022-12-04T00:51:05.978Z,70.21
2022-12-04T00:53:33.371Z,71.71
2022-12-04T00:56:04.417Z,70.34
2022-12-04T00:58:32.069Z,69.19
2022-12-04T01:01:07.666Z,68.51
2022-12-04T01:03:35.538Z,69.54
2022-12-04T01:06:03.057Z,69.42
2022-12-04T01:08:30.664Z,68.79
2022-12-04T01:10:58.340Z,71.16
2022-12-04T01:13:25.951Z,72.33
2022-12-04T01:15:53.589Z,74.72
2022-12-04T01:18:21.237Z,74.00
2022-12-04T01:20:49.455Z,70.44
2022-12-04T01:23:17.252Z,74.24
2022-12-04T01:25:54.987Z,75.46
2022-12-04T01:28:22.618Z,74.86
2022-12-04T01:31:07.520Z,72.41
2022-12-04T01:33:35.443Z,70.54
2022-12-04T01:36:07.839Z,72.15
2022-12-04T01:38:35.406Z,69.90
2022-12-04T01:41:03.208Z,74.50
2022-12-04T01:43:31.575Z,71.02
2022-12-04T01:46:02.192Z,70.26
2022-12-04T01:48:33.392Z,72.85
2022-12-04T01:51:05.572Z,75.25
2022-12-04T01:53:34.760Z,74.80
2022-12-04T01:56:02.366Z,73.00
2022-12-04T01:58:32.816Z,73.49
2022-12-04T02:01:07.967Z,71.85
2022-12-04T02:03:36.930Z,75.57
2022-12-04T02:06:04.520Z,72.88
2022-12-04T02:08:31.951Z,73.64
2022-12-04T02:11:20.895Z,71.35
2022-12-04T02:14:04.039Z,70.64
2022-12-04T02:16:51.335Z,70.04
2022-12-04T02:19:26.229Z,74.93
2022-12-04T02:21:54.282Z,74.77
2022-12-04T02:24:50.403Z,72.41
2022-12-04T02:27:43.863Z,71.44
2022-12-04T02:30:14.341Z,72.90
2022-12-04T02:33:12.834Z,74.20
2022-12-04T02:36:05.533Z,75.33
2022-12-04T02:38:36.640Z,73.10
2022-12-04T02:41:08.874Z,72.92
2022-12-04T02:43:40.277Z,73.48
2022-12-04T02:46:11.326Z,74.58
2022-12-04T02:48:40.503Z,72.26
2022-12-04T02:51:07.894Z,72.07
2022-12-04T02:53:37.463Z,73.27
2022-12-04T02:56:16.541Z,73.55
2022-12-04T02:59:11.505Z,73.19
2022-12-04T03:01:41.437Z,71.39
2022-12-04T03:04:15.647Z,71.68
2022-12-04T03:06:44.219Z,75.35
2022-12-04T03:09:15.355Z,73.24
2022-12-04T03:11:45.999Z,73.81
2022-12-04T03:14:17.071Z,72.05
2022-12-04T03:16:44.756Z,72.12
2022-12-04T03:19:18.277Z,71.17
2022-12-04T03:21:58.240Z,70.09
2022-12-04T03:24:48.859Z,70.56
2022-12-04T03:27:25.525Z,70.54
2022-12-04T03:30:00.682Z,70.67
2022-12-04T03:32:45.265Z,69.84
2022-12-04T03:35:16.865Z,70.67
2022-12-04T03:38:01.053Z,70.89
2022-12-04T03:40:31.210Z,70.03
2022-12-04T03:43:20.075Z,70.51
2022-12-04T03:46:05.523Z,72.56
2022-12-04T03:48:42.710Z,72.70
2022-12-04T03:51:40.974Z,70.44
2022-12-04T03:54:12.326Z,71.35
2022-12-04T03:56:41.913Z,72.57
2022-12-04T03:59:12.635Z,71.81
2022-12-04T04:01:43.349Z,71.78
2022-12-04T04:04:13.349Z,73.21
2022-12-04T04:06:43.222Z,71.01
2022-12-04T04:09:16.218Z,75.83
2022-12-04T04:11:46.573Z,73.43
2022-12-04T04:14:38.436Z,72.60
2022-12-04T04:17:26.448Z,74.28
2022-12-04T04:20:25.538Z,76.19
2022-12-04T04:23:12.136Z,73.76
2022-12-04T04:25:40.442Z,74.24
2022-12-04T04:28:31.144Z,74.80
2022-12-04T04:31:24.846Z,72.33
2022-12-04T04:34:05.960Z,70.70
2022-12-04T04:36:39.550Z,73.31
2022-12-04T04:39:30.926Z,71.91
2022-12-04T04:42:26.622Z,71.91
2022-12-04T04:44:56.660Z,71.17
2022-12-04T04:47:38.796Z,71.57
2022-12-04T04:50:08.051Z,72.32
2022-12-04T04:52:36.932Z,76.66
2022-12-04T04:55:04.453Z,74.14
2022-12-04T04:57:34.095Z,73.21
2022-12-04T05:00:12.709Z,74.16
2022-12-04T05:02:40.424Z,73.40
2022-12-04T05:05:08.508Z,71.64
2022-12-04T05:07:35.914Z,71.28
2022-12-04T05:10:03.902Z,70.66
2022-12-04T05:12:31.506Z,71.71
2022-12-04T05:14:58.899Z,72.12
2022-12-04T05:17:26.283Z,73.07
2022-12-04T05:19:54.271Z,71.65
2022-12-04T05:22:26.373Z,72.03
2022-12-04T05:24:54.046Z,71.18
2022-12-04T05:27:22.091Z,71.89
2022-12-04T05:29:51.416Z,72.73
2022-12-04T05:32:19.039Z,71.20
2022-12-04T05:34:50.090Z,72.91
2022-12-04T05:37:17.489Z,71.48
2022-12-04T05:39:45.139Z,73.75
2022-12-04T05:42:12.585Z,73.22
2022-12-04T05:44:39.930Z,71.22
2022-12-04T05:47:07.743Z,70.64
2022-12-04T05:49:35.329Z,70.10
2022-12-04T05:52:03.136Z,70.34
2022-12-04T05:54:30.768Z,70.13
2022-12-04T05:56:58.111Z,70.02
2022-12-04T05:59:25.452Z,69.76
2022-12-04T06:01:53.135Z,70.57
2022-12-04T06:04:20.931Z,71.26
2022-12-04T06:06:48.480Z,69.81
2022-12-04T06:09:15.832Z,70.71
2022-12-04T06:11:43.430Z,72.92
2022-12-04T06:14:13.675Z,71.21
2022-12-04T06:16:43.309Z,69.50
2022-12-04T06:19:16.814Z,69.45
2022-12-04T06:21:45.098Z,72.05
2022-12-04T06:24:13.948Z,71.80
2022-12-04T06:27:03.928Z,69.77
2022-12-04T06:29:28.951Z,68.62
2022-12-04T06:31:56.338Z,68.12
2022-12-04T06:34:23.717Z,67.78
2022-12-04T06:36:51.353Z,68.05
2022-12-04T06:39:19.308Z,69.14
2022-12-04T06:41:47.594Z,68.51
2022-12-04T06:44:15.703Z,68.76
2022-12-04T06:46:46.763Z,69.34
2022-12-04T06:49:14.924Z,68.79
2022-12-04T06:51:42.231Z,69.39
2022-12-04T06:54:09.656Z,69.00
2022-12-04T06:56:37.294Z,69.47
2022-12-04T06:59:04.850Z,68.95
2022-12-04T07:01:33.377Z,67.85
2022-12-04T07:04:03.423Z,68.30
2022-12-04T07:06:32.691Z,70.59
2022-12-04T07:09:01.868Z,71.65
2022-12-04T07:11:29.525Z,70.68
2022-12-04T07:13:56.918Z,70.01
2022-12-04T07:16:25.069Z,68.66
2022-12-04T07:18:56.822Z,67.74
2022-12-04T07:21:25.661Z,69.66
2022-12-04T07:23:54.889Z,67.78
2022-12-04T07:26:22.369Z,70.62
2022-12-04T07:28:49.713Z,69.51
2022-12-04T07:31:18.875Z,71.75
2022-12-04T07:33:46.357Z,73.18
2022-12-04T07:36:15.168Z,70.92
2022-12-04T07:38:42.826Z,71.52
2022-12-04T07:41:10.984Z,70.58
2022-12-04T07:43:38.558Z,70.18
2022-12-04T07:46:07.992Z,68.06
2022-12-04T07:48:35.503Z,70.99
2022-12-04T07:51:09.918Z,70.09
2022-12-04T07:53:37.581Z,71.71
2022-12-04T07:56:05.590Z,69.08
2022-12-04T07:58:33.370Z,69.84
2022-12-04T08:01:12.282Z,70.26
2022-12-04T08:03:45.441Z,70.69
2022-12-04T08:06:14.804Z,70.64
2022-12-04T08:08:42.570Z,70.42
2022-12-04T08:11:11.357Z,70.26
2022-12-04T08:13:38.705Z,71.71
2022-12-04T08:16:07.935Z,72.45
2022-12-04T08:18:35.475Z,70.13
2022-12-04T08:21:13.918Z,72.64
2022-12-04T08:23:42.072Z,75.00
2022-12-04T08:26:09.651Z,75.58
2022-12-04T08:28:37.327Z,73.80
2022-12-04T08:31:15.353Z,71.68
2022-12-04T08:33:43.046Z,72.87
2022-12-04T08:36:12.721Z,73.86
2022-12-04T08:38:40.076Z,72.10
2022-12-04T08:41:08.214Z,75.53
2022-12-04T08:43:35.842Z,74.55
2022-12-04T08:46:05.261Z,73.05
2022-12-04T08:48:32.816Z,71.40
2022-12-04T08:51:00.541Z,73.13
2022-12-04T08:53:27.897Z,72.05
2022-12-04T08:55:55.245Z,76.40
2022-12-04T08:58:23.189Z,74.15
2022-12-04T09:00:50.672Z,71.69
2022-12-04T09:03:18.903Z,72.45
2022-12-04T09:05:46.649Z,72.12
2022-12-04T09:08:15.421Z,70.49
2022-12-04T09:10:45.398Z,71.64
2022-12-04T09:13:13.010Z,73.61
2022-12-04T09:15:40.528Z,69.85
2022-12-04T09:18:08.188Z,69.79
2022-12-04T09:20:35.882Z,70.50
2022-12-04T09:23:05.214Z,69.81
2022-12-04T09:25:36.682Z,69.58
2022-12-04T09:28:04.463Z,68.01
2022-12-04T09:30:31.847Z,68.32
2022-12-04T09:32:59.228Z,69.39
2022-12-04T09:35:26.930Z,69.34
2022-12-04T09:37:54.266Z,67.87
2022-12-04T09:40:35.509Z,67.38
2022-12-04T09:43:23.534Z,67.65
2022-12-04T09:45:52.392Z,67.75
2022-12-04T09:48:19.990Z,66.05
2022-12-04T09:50:48.180Z,66.82
2022-12-04T09:53:18.545Z,66.63
2022-12-04T09:55:58.442Z,70.88
2022-12-04T09:58:29.053Z,68.83
2022-12-04T10:00:56.680Z,68.97
2022-12-04T10:03:25.600Z,70.03
2022-12-04T10:05:52.846Z,69.88
2022-12-04T10:08:34.769Z,68.85
2022-12-04T10:11:34.137Z,69.18
2022-12-04T10:14:06.198Z,66.38
2022-12-04T10:16:39.778Z,67.68
2022-12-04T10:19:22.073Z,65.19
2022-12-04T10:22:14.244Z,67.16
2022-12-04T10:24:48.170Z,67.19
2022-12-04T10:27:33.843Z,64.89
2022-12-04T10:30:03.459Z,65.28
2022-12-04T10:32:34.204Z,68.56
2022-12-04T10:35:37.949Z,67.34
2022-12-04T10:38:37.272Z,67.64
2022-12-04T10:41:42.556Z,65.57
2022-12-04T10:44:14.453Z,62.59
2022-12-04T10:46:45.721Z,64.86
2022-12-04T10:49:17.835Z,61.66
2022-12-04T10:51:45.297Z,64.17
2022-12-04T10:54:24.531Z,64.67
2022-12-04T10:56:56.874Z,65.11
2022-12-04T10:59:24.569Z,64.74
2022-12-04T11:01:52.921Z,65.11
2022-12-04T11:04:24.882Z,64.54
2022-12-04T11:07:01.610Z,64.50
2022-12-04T11:09:29.555Z,66.14
2022-12-04T11:12:09.195Z,64.54
2022-12-04T11:14:36.582Z,64.09
2022-12-04T11:17:05.852Z,64.16
2022-12-04T11:19:34.832Z,65.49
2022-12-04T11:22:18.767Z,64.74
2022-12-04T11:24:50.876Z,62.61
2022-12-04T11:27:29.485Z,62.93
2022-12-04T11:29:57.690Z,65.39
2022-12-04T11:32:33.351Z,68.06
2022-12-04T11:35:13.388Z,65.46
2022-12-04T11:37:45.364Z,65.95
2022-12-04T11:40:16.852Z,63.96
2022-12-04T11:42:44.277Z,64.22
2022-12-04T11:45:22.355Z,63.65
2022-12-04T11:47:57.405Z,62.30
2022-12-04T11:51:05.932Z,61.35
2022-12-04T11:53:47.892Z,60.88
2022-12-04T11:56:34.763Z,62.18
2022-12-04T11:59:26.564Z,61.93
2022-12-04T12:02:12.152Z,64.33
2022-12-04T12:05:06.283Z,63.38
2022-12-04T12:08:02.490Z,64.95
2022-12-04T12:10:40.069Z,65.32
2022-12-04T12:13:28.945Z,63.99
2022-12-04T12:16:11.848Z,62.71
2022-12-04T12:19:00.574Z,60.59
2022-12-04T12:21:37.140Z,61.36
2022-12-04T12:24:27.067Z,60.79
2022-12-04T12:27:22.592Z,64.16
2022-12-04T12:30:02.137Z,64.30
2022-12-04T12:33:01.184Z,65.20
2022-12-04T12:35:49.572Z,61.64
2022-12-04T12:38:18.965Z,60.74
2022-12-04T12:40:50.360Z,60.67
2022-12-04T12:43:32.265Z,59.80
2022-12-04T12:46:14.515Z,61.76
2022-12-04T12:49:11.075Z,62.30
2022-12-04T12:51:44.242Z,64.64
2022-12-04T12:54:16.083Z,62.14
2022-12-04T12:56:49.718Z,61.80
2022-12-04T12:59:20.449Z,61.37
2022-12-04T13:02:00.138Z,60.35
2022-12-04T13:04:48.912Z,62.45
2022-12-04T13:07:26.560Z,64.20
2022-12-04T13:10:06.875Z,67.31
2022-12-04T13:13:06.747Z,67.60
2022-12-04T13:15:54.995Z,66.53
2022-12-04T13:18:30.496Z,65.32
2022-12-04T13:21:00.284Z,64.80
2022-12-04T13:24:06.643Z,63.51
2022-12-04T13:27:04.414Z,62.00
2022-12-04T13:30:01.987Z,60.82
2022-12-04T13:32:48.310Z,60.61
2022-12-04T13:35:37.730Z,60.23
2022-12-04T13:39:02.278Z,61.66
2022-12-04T13:41:29.797Z,60.69
2022-12-04T13:43:59.018Z,62.00
2022-12-04T13:46:34.197Z,60.80
2022-12-04T13:49:34.315Z,63.02
2022-12-04T13:52:03.880Z,62.74
2022-12-04T13:54:35.636Z,61.24
2022-12-04T13:57:15.085Z,61.62
2022-12-04T13:59:42.707Z,61.11
2022-12-04T14:02:39.542Z,59.81
2022-12-04T14:05:08.299Z,60.27
2022-12-04T14:07:37.507Z,61.24
2022-12-04T14:10:28.202Z,61.66
2022-12-04T14:12:59.376Z,61.03
2022-12-04T14:15:31.140Z,60.78
2022-12-04T14:18:05.030Z,61.36
2022-12-04T14:20:33.095Z,61.60
2022-12-04T14:23:16.502Z,61.12
2022-12-04T14:25:43.901Z,62.70
2022-12-04T14:28:23.778Z,63.34
2022-12-04T14:31:12.636Z,62.90
2022-12-04T14:33:45.789Z,63.01
2022-12-04T14:36:39.531Z,65.36
2022-12-04T14:39:25.998Z,68.13
2022-12-04T14:41:56.876Z,67.40
2022-12-04T14:44:28.755Z,66.15
2022-12-04T14:47:15.208Z,64.82
2022-12-04T14:50:04.868Z,63.87
2022-12-04T14:52:36.705Z,63.51
2022-12-04T14:55:23.663Z,62.83
2022-12-04T14:58:34.357Z,63.88
2022-12-04T15:01:28.424Z,63.28
2022-12-04T15:03:59.051Z,62.35
2022-12-04T15:06:31.699Z,62.26
2022-12-04T15:09:22.819Z,62.90
2022-12-04T15:12:10.877Z,63.26
2022-12-04T15:14:46.121Z,62.17
2022-12-04T15:17:15.677Z,62.60
2022-12-04T15:19:43.188Z,61.64
2022-12-04T15:22:22.072Z,64.53
2022-12-04T15:24:50.701Z,63.33
2022-12-04T15:27:19.508Z,63.94
2022-12-04T15:29:49.116Z,64.13
2022-12-04T15:32:17.781Z,63.81
2022-12-04T15:34:50.128Z,63.76
2022-12-04T15:37:21.208Z,63.12
2022-12-04T15:39:49.884Z,63.43
2022-12-04T15:42:23.023Z,65.38
2022-12-04T15:45:01.320Z,64.38
2022-12-04T15:47:53.531Z,67.33
2022-12-04T15:50:22.148Z,66.68
2022-12-04T15:53:20.927Z,66.56
2022-12-04T15:55:53.235Z,64.83
2022-12-04T15:58:28.951Z,65.50
2022-12-04T16:01:00.657Z,64.65
2022-12-04T16:03:44.173Z,64.78
2022-12-04T16:06:21.941Z,66.09
2022-12-04T16:08:54.453Z,65.08
2022-12-04T16:11:21.730Z,66.98
2022-12-04T16:14:01.734Z,65.51
2022-12-04T16:16:29.453Z,69.04
2022-12-04T16:18:56.956Z,68.00
2022-12-04T16:21:31.213Z,70.22
2022-12-04T16:24:05.698Z,67.36
2022-12-04T16:26:33.083Z,65.18
2022-12-04T16:29:00.956Z,64.91
2022-12-04T16:31:28.398Z,65.14
2022-12-04T16:33:55.763Z,66.10
2022-12-04T16:36:23.352Z,66.09
2022-12-04T16:38:51.409Z,67.35
2022-12-04T16:41:19.195Z,67.47
2022-12-04T16:43:52.375Z,67.37
2022-12-04T16:46:19.801Z,67.60
2022-12-04T16:48:47.393Z,65.95
2022-12-04T16:51:15.654Z,68.78
2022-12-04T16:53:43.019Z,69.27
2022-12-04T16:56:10.770Z,70.54
2022-12-04T16:58:38.101Z,72.00
2022-12-04T17:01:05.975Z,71.09
2022-12-04T17:03:33.969Z,68.04
2022-12-04T17:06:01.485Z,66.97
2022-12-04T17:08:29.688Z,67.37
2022-12-04T17:10:57.382Z,71.74
2022-12-04T17:13:24.714Z,70.22
2022-12-04T17:15:52.057Z,69.96
2022-12-04T17:18:21.532Z,69.55
2022-12-04T17:20:49.137Z,68.65
2022-12-04T17:23:16.703Z,70.40
2022-12-04T17:25:44.491Z,68.55
2022-12-04T17:28:11.811Z,70.30
2022-12-04T17:30:39.163Z,71.04
2022-12-04T17:33:06.760Z,71.67
2022-12-04T17:35:34.151Z,68.68
2022-12-04T17:38:05.897Z,68.40
2022-12-04T17:40:34.276Z,68.73
2022-12-04T17:43:01.701Z,73.17
2022-12-04T17:45:29.027Z,68.92
2022-12-04T17:47:56.694Z,68.55
2022-12-04T17:50:24.022Z,67.46
2022-12-04T17:52:51.341Z,69.17
2022-12-04T17:55:18.984Z,69.77
2022-12-04T17:57:46.332Z,68.93
2022-12-04T18:00:13.870Z,70.10
2022-12-04T18:02:42.491Z,70.41
2022-12-04T18:05:09.889Z,70.31
2022-12-04T18:07:37.300Z,69.43
2022-12-04T18:10:05.599Z,69.12
2022-12-04T18:12:32.943Z,69.51
2022-12-04T18:15:00.318Z,71.35
2022-12-04T18:17:27.931Z,72.67
2022-12-04T18:19:57.757Z,71.40
2022-12-04T18:22:28.837Z,70.19
2022-12-04T18:24:56.300Z,70.32
2022-12-04T18:27:23.848Z,70.20
2022-12-04T18:29:51.457Z,69.82
2022-12-04T18:32:18.795Z,68.77
2022-12-04T18:34:46.230Z,69.96
2022-12-04T18:37:13.950Z,71.35
2022-12-04T18:39:41.287Z,69.15
2022-12-04T18:42:08.639Z,69.28
2022-12-04T18:44:36.344Z,73.76
2022-12-04T18:47:03.680Z,74.44
2022-12-04T18:49:31.143Z,74.81
2022-12-04T18:51:59.065Z,73.12
2022-12-04T18:54:26.413Z,73.00
2022-12-04T18:56:53.736Z,73.72
2022-12-04T18:59:23.230Z,72.37
2022-12-04T19:01:51.058Z,75.38
2022-12-04T19:04:19.531Z,72.56
2022-12-04T19:06:51.001Z,72.62
2022-12-04T19:09:40.944Z,71.49
2022-12-04T19:12:11.674Z,72.06
2022-12-04T19:14:39.756Z,70.68
2022-12-04T19:17:07.258Z,71.53
2022-12-04T19:19:34.932Z,73.79
2022-12-04T19:22:02.288Z,73.70
2022-12-04T19:24:29.700Z,73.22
2022-12-04T19:26:57.478Z,75.49
2022-12-04T19:29:24.790Z,72.50
2022-12-04T19:31:57.569Z,71.47
2022-12-04T19:34:26.693Z,69.87
2022-12-04T19:36:54.274Z,71.47
2022-12-04T19:39:21.650Z,72.41
2022-12-04T19:41:49.369Z,71.21
2022-12-04T19:44:47.285Z,71.81
2022-12-04T19:47:04.419Z,72.29
2022-12-04T19:49:31.768Z,72.31
2022-12-04T19:51:59.129Z,70.53
2022-12-04T19:54:27.412Z,72.36
2022-12-04T19:56:54.744Z,71.31
2022-12-04T19:59:22.043Z,70.08
2022-12-04T20:01:49.879Z,69.54
2022-12-04T20:04:17.647Z,76.22
2022-12-04T20:06:45.634Z,73.81
2022-12-04T20:09:15.763Z,71.15
2022-12-04T20:11:43.373Z,70.79
2022-12-04T20:14:10.805Z,69.08
2022-12-04T20:16:38.729Z,68.77
2022-12-04T20:19:07.388Z,67.30
2022-12-04T20:21:34.710Z,69.77
2022-12-04T20:24:04.058Z,68.27
2022-12-04T20:26:33.463Z,67.93
2022-12-04T20:29:01.078Z,69.35
2022-12-04T20:31:39.133Z,67.59
2022-12-04T20:34:08.292Z,67.39
2022-12-04T20:36:40.117Z,67.00
2022-12-04T20:39:07.858Z,66.15
2022-12-04T20:41:35.328Z,65.81
2022-12-04T20:44:04.089Z,65.80
2022-12-04T20:46:36.456Z,65.93
2022-12-04T20:49:06.261Z,65.29
2022-12-04T20:51:35.806Z,64.89
2022-12-04T20:54:03.255Z,64.65
2022-12-04T20:56:32.950Z,64.58
2022-12-04T20:59:03.068Z,65.08
2022-12-04T21:01:30.508Z,64.35
2022-12-04T21:04:00.978Z,63.85
2022-12-04T21:06:35.864Z,63.97
2022-12-04T21:09:27.488Z,63.55
2022-12-04T21:11:55.359Z,64.15
2022-12-04T21:14:43.102Z,63.67
2022-12-04T21:17:16.520Z,63.43
2022-12-04T21:19:44.838Z,63.71
2022-12-04T21:22:13.063Z,63.76
2022-12-04T21:24:42.116Z,65.11
2022-12-04T21:27:10.980Z,63.51
2022-12-04T21:29:40.096Z,63.44
2022-12-04T21:32:07.429Z,63.31
2022-12-04T21:34:34.907Z,63.97
2022-12-04T21:37:02.625Z,63.31
2022-12-04T21:39:29.982Z,64.10
2022-12-04T21:42:16.036Z,64.29
2022-12-04T21:44:43.779Z,63.97
2022-12-04T21:47:11.237Z,63.30
2022-12-04T21:49:38.573Z,63.41
2022-12-04T21:52:06.176Z,62.83
2022-12-04T21:54:33.510Z,62.92
2022-12-04T21:57:00.880Z,63.46
2022-12-04T21:59:28.539Z,63.07
2022-12-04T22:01:55.923Z,63.22
2022-12-04T22:04:23.659Z,63.67
2022-12-04T22:06:51.008Z,63.03
2022-12-04T22:09:18.353Z,62.34
2022-12-04T22:11:46.084Z,62.74
2022-12-04T22:14:13.730Z,62.58
2022-12-04T22:16:43.421Z,62.68
2022-12-04T22:19:12.135Z,63.30
2022-12-04T22:21:39.702Z,63.33
2022-12-04T22:24:07.919Z,63.88
2022-12-04T22:26:35.597Z,63.57
2022-12-04T22:29:11.250Z,63.47
2022-12-04T22:31:50.917Z,63.22
2022-12-04T22:34:18.301Z,63.00
2022-12-04T22:36:45.656Z,63.79
2022-12-04T22:39:13.243Z,63.39
2022-12-04T22:41:40.582Z,63.10
2022-12-04T22:44:07.910Z,62.73
2022-12-04T22:46:35.569Z,63.07
2022-12-04T22:49:02.994Z,63.81
2022-12-04T22:51:30.528Z,63.69
2022-12-04T22:53:58.440Z,63.47
2022-12-04T22:56:27.461Z,63.65
2022-12-04T22:58:54.835Z,63.11
2022-12-04T23:01:23.289Z,63.02
2022-12-04T23:03:50.981Z,63.14
2022-12-04T23:06:19.379Z,64.30
2022-12-04T23:08:46.936Z,63.30
2022-12-04T23:11:16.612Z,63.10
2022-12-04T23:13:44.111Z,64.33
2022-12-04T23:16:16.907Z,63.48
2022-12-04T23:18:47.189Z,62.76
2022-12-04T23:21:14.929Z,64.16
2022-12-04T23:23:43.263Z,63.69
2022-12-04T23:26:12.794Z,64.13
2022-12-04T23:28:40.418Z,63.07
2022-12-04T23:31:07.940Z,62.98
2022-12-04T23:33:35.531Z,63.10
2022-12-04T23:36:03.908Z,63.31
2022-12-04T23:38:31.312Z,64.52
2022-12-04T23:41:05.546Z,63.84
2022-12-04T23:43:33.379Z,63.29
2022-12-04T23:46:04.486Z,63.18
2022-12-04T23:48:35.062Z,63.49
2022-12-04T23:51:02.412Z,62.91
2022-12-04T23:53:29.748Z,63.89
2022-12-04T23:56:05.219Z,63.18
2022-12-04T23:58:32.875Z,66.03
